Fair Grove, Missouri
Current Conditions -  °F | °C
As of 9:52 AM on Friday 19 Dec 2014 (Local Time) from KSGF Reporting Station
Overcast Overcast  
Wind Chill: 34°   Ceiling: 900
Heat Index: 38°   Visibility: 8mi
Dew Point: 35°   Wind: 5mph
Humidity: 89%   Direction: 150°SSE
Pressure: 30.25"   Gusts: NA
Location:  37.38°N, 93.15°W
Report Text: KSGF 191552Z 15004KT 8SM OVC009 03/02 A3025 RMK AO2 CIG 008V012 SLP249 T00330017
Loading
Personal Weather Stations






























Interactive Weather Map New forecast layout! Learn more

10-Day Weather Forecast

Advertisements
Track Severe Weather on mobile